Flight NumberIRM076 Date11.05.2018
Departure AirportZSPD Arrival AirportOIIE
Departure Time6.57Arrival Time15.08
Pilot In CommandSaeed TabaTabaei Block Time8.20 Hours
Pilot Rating100 % AircraftEP-MNO [ A310-300ET ]


Distance3,483.00 Nm. Passengers202
Fuel Used38,032 Kg. Cargo16689 Kg
Expense Details Income Details
Fuel Cost39,248 v$Ticket Sales121,200 v$
Pilot Salary9,739 v$ Cargo income36,985.00 v$
Crew Salary1,010 v$ Bonus23,188 v$
Gross Profit129,392 v$ ( 1,293,920 v$ )

Client Versionv2.2.0.rc3 Max Simrate1
Flight Critique Pilot CommentsOIIE 111800Z 28006KT 9999 FEW040 SCT190 17/08 Q1009 NOSIG// RADA1V ILS RWY 29R